Time;durP1;ratioP1;P1;durP2;ratioP2;P2;SDS_P1;SDS_P2;PMS_P1;PMS_P2;Temp;Humidity;BMP_temperature;BMP_pressure;BME280_temperature;BME280_humidity;BME280_pressure;Samples;Min_cycle;Max_cycle;Signal;HPM_P1;HPM_P2
2023/11/10 00:01:00;;;;;;;2.05;0.70;;;14.30;96.70;;;;;;4908913;29;20056;-75
2023/11/10 00:03:28;;;;;;;1.80;0.52;;;14.30;96.70;;;;;;4924323;29;20091;-75
2023/11/10 00:05:56;;;;;;;1.90;0.47;;;14.30;96.70;;;;;;4908816;29;21114;-76
2023/11/10 00:08:24;;;;;;;1.08;0.70;;;14.30;96.70;;;;;;4935417;29;20501;-75
2023/11/10 00:10:53;;;;;;;0.98;0.60;;;14.30;96.70;;;;;;4921374;29;20094;-75
2023/11/10 00:13:21;;;;;;;2.10;0.73;;;14.30;96.70;;;;;;4926004;29;20048;-76
2023/11/10 00:15:50;;;;;;;2.45;0.70;;;14.30;96.70;;;;;;4915010;29;20498;-75
2023/11/10 00:18:18;;;;;;;2.45;0.73;;;14.20;96.70;;;;;;4926719;29;20541;-75
2023/11/10 00:20:46;;;;;;;1.80;0.70;;;14.30;96.70;;;;;;4915596;29;20055;-75
2023/11/10 00:23:14;;;;;;;1.40;0.70;;;14.30;96.70;;;;;;4909063;29;20121;-76
2023/11/10 00:25:42;;;;;;;1.40;0.70;;;14.30;96.70;;;;;;4909139;29;20055;-75
2023/11/10 00:28:11;;;;;;;1.33;0.60;;;14.20;96.70;;;;;;4925297;29;20521;-75
2023/11/10 00:30:39;;;;;;;0.85;0.50;;;14.20;96.70;;;;;;4906510;29;20040;-75
2023/11/10 00:33:09;;;;;;;1.00;0.50;;;14.20;96.70;;;;;;4911720;29;20052;-75
2023/11/10 00:35:37;;;;;;;0.93;0.55;;;14.30;96.70;;;;;;4900806;29;20059;-76
2023/11/10 00:38:05;;;;;;;2.45;0.60;;;14.30;96.70;;;;;;4935485;29;20114;-76
2023/11/10 00:40:34;;;;;;;2.15;0.52;;;14.20;96.70;;;;;;4920469;29;20066;-76
2023/11/10 00:43:02;;;;;;;1.55;0.60;;;14.30;96.70;;;;;;4911286;29;20060;-76
2023/11/10 00:45:30;;;;;;;2.08;0.50;;;14.30;96.70;;;;;;4900620;29;20057;-75
2023/11/10 00:48:00;;;;;;;1.95;0.52;;;14.20;96.70;;;;;;4929650;29;20048;-76
2023/11/10 00:50:29;;;;;;;0.90;0.47;;;14.30;96.70;;;;;;4926691;29;20355;-75
2023/11/10 00:52:57;;;;;;;2.17;0.75;;;14.30;96.70;;;;;;4930964;29;20043;-76
2023/11/10 00:55:25;;;;;;;1.40;0.60;;;14.20;96.70;;;;;;4902212;29;20059;-74
2023/11/10 00:57:53;;;;;;;1.30;0.50;;;14.20;96.70;;;;;;4911361;29;20055;-75
2023/11/10 01:00:21;;;;;;;3.70;0.40;;;14.20;96.70;;;;;;4896022;29;20771;-76
2023/11/10 01:02:50;;;;;;;1.48;0.55;;;14.20;96.70;;;;;;4911739;29;20397;-75
2023/11/10 01:05:21;;;;;;;1.00;0.45;;;14.20;96.70;;;;;;4913404;29;20671;-76
2023/11/10 01:07:50;;;;;;;3.00;0.40;;;14.30;96.70;;;;;;4911351;29;20052;-74
2023/11/10 01:10:18;;;;;;;1.50;0.45;;;14.30;96.70;;;;;;4928654;29;20043;-75
2023/11/10 01:12:47;;;;;;;2.30;0.60;;;14.30;96.70;;;;;;4938372;29;20107;-75
2023/11/10 01:15:18;;;;;;;1.05;0.40;;;14.30;96.70;;;;;;4912070;29;20054;-75
2023/11/10 01:17:45;;;;;;;0.82;0.32;;;14.30;96.70;;;;;;4911901;29;20059;-75
2023/11/10 01:20:14;;;;;;;1.08;0.47;;;14.30;96.70;;;;;;4903863;29;20053;-75
2023/11/10 01:22:41;;;;;;;1.00;0.70;;;14.30;96.70;;;;;;4921771;29;20425;-76
2023/11/10 01:25:13;;;;;;;0.95;0.60;;;14.30;96.70;;;;;;4941757;29;20049;-75
2023/11/10 01:27:43;;;;;;;1.17;0.60;;;14.30;96.70;;;;;;4944325;29;20053;-75
2023/11/10 01:30:12;;;;;;;0.95;0.50;;;14.30;96.70;;;;;;4939132;29;20047;-74
2023/11/10 01:32:41;;;;;;;0.88;0.50;;;14.30;96.70;;;;;;4940463;29;20050;-75
2023/11/10 01:35:10;;;;;;;0.52;0.40;;;14.30;96.70;;;;;;4894183;29;20044;-75
2023/11/10 01:37:39;;;;;;;0.70;0.35;;;14.30;96.70;;;;;;4909609;29;20048;-75
2023/11/10 01:40:08;;;;;;;1.48;0.50;;;14.30;96.70;;;;;;4928518;29;20886;-75
2023/11/10 01:42:40;;;;;;;1.85;0.70;;;14.30;96.70;;;;;;4910847;29;20051;-74
2023/11/10 01:45:09;;;;;;;3.70;0.50;;;14.30;96.70;;;;;;4918799;29;20051;-75
2023/11/10 01:47:39;;;;;;;1.55;0.50;;;14.30;96.70;;;;;;4915751;29;20452;-75
2023/11/10 01:50:10;;;;;;;1.98;0.75;;;14.20;96.70;;;;;;4892051;29;20055;-75
2023/11/10 01:52:41;;;;;;;2.00;0.38;;;14.20;96.70;;;;;;4929014;29;20086;-75
2023/11/10 01:55:12;;;;;;;1.90;0.45;;;14.20;96.70;;;;;;4917333;29;20580;-75
2023/11/10 01:57:41;;;;;;;1.58;0.40;;;14.20;96.70;;;;;;4943124;29;20670;-75
2023/11/10 02:00:11;;;;;;;0.57;0.40;;;14.20;96.70;;;;;;4919274;29;20047;-74
2023/11/10 02:02:39;;;;;;;1.15;0.50;;;14.20;96.70;;;;;;4903014;29;20096;-75
2023/11/10 02:05:08;;;;;;;1.00;0.40;;;14.20;96.70;;;;;;4895219;29;20067;-75
2023/11/10 02:07:36;;;;;;;1.45;0.40;;;14.20;96.70;;;;;;4906044;29;20050;-75
2023/11/10 02:10:04;;;;;;;0.70;0.40;;;14.20;96.70;;;;;;4926930;29;20051;-75
2023/11/10 02:12:35;;;;;;;2.40;0.50;;;14.20;96.70;;;;;;4910020;29;20052;-74
2023/11/10 02:15:07;;;;;;;1.05;0.40;;;14.20;96.70;;;;;;4928902;29;20052;-76
2023/11/10 02:17:36;;;;;;;2.38;0.47;;;14.20;96.70;;;;;;4895176;29;20134;-75
2023/11/10 02:20:05;;;;;;;0.93;0.50;;;14.20;96.70;;;;;;4915108;29;20055;-75
2023/11/10 02:22:33;;;;;;;2.22;0.60;;;14.20;96.70;;;;;;4928027;29;20075;-74
2023/11/10 02:25:05;;;;;;;1.70;0.63;;;14.20;96.70;;;;;;4914526;29;20036;-75
2023/11/10 02:27:34;;;;;;;1.70;0.43;;;14.20;96.70;;;;;;4924020;29;20047;-75
2023/11/10 02:30:02;;;;;;;0.80;0.40;;;14.20;96.70;;;;;;4913492;29;20134;-74
2023/11/10 02:32:30;;;;;;;1.15;0.60;;;14.20;96.70;;;;;;4919552;29;20051;-75
2023/11/10 02:34:58;;;;;;;1.13;0.40;;;14.20;96.70;;;;;;4910813;29;20036;-76
2023/11/10 02:37:26;;;;;;;0.47;0.40;;;14.20;96.70;;;;;;4937457;29;20043;-75
2023/11/10 02:39:54;;;;;;;2.20;0.70;;;14.20;96.70;;;;;;4900169;29;20040;-76
2023/11/10 02:42:22;;;;;;;1.15;0.60;;;14.20;96.70;;;;;;4896393;29;20102;-75
2023/11/10 02:44:51;;;;;;;0.70;0.60;;;14.20;96.70;;;;;;4904960;29;20575;-75
2023/11/10 02:47:19;;;;;;;1.38;0.80;;;14.20;96.70;;;;;;4916002;29;20059;-75
2023/11/10 02:49:47;;;;;;;1.58;0.80;;;14.20;96.70;;;;;;4907259;29;20129;-76
2023/11/10 02:52:15;;;;;;;1.77;0.90;;;14.20;96.70;;;;;;4894712;29;20059;-76
2023/11/10 02:54:43;;;;;;;2.00;0.70;;;14.20;96.70;;;;;;4908290;29;20492;-75
2023/11/10 02:57:10;;;;;;;7.38;1.65;;;14.10;96.70;;;;;;4906479;29;20522;-76
2023/11/10 02:59:38;;;;;;;2.00;0.93;;;14.00;96.70;;;;;;4912054;29;20126;-75
2023/11/10 03:02:08;;;;;;;2.58;1.02;;;14.00;96.70;;;;;;4912896;29;20059;-76
2023/11/10 03:04:39;;;;;;;1.80;0.82;;;13.90;96.70;;;;;;4914485;29;20484;-75
2023/11/10 03:07:07;;;;;;;3.33;1.30;;;13.90;96.70;;;;;;4907537;29;20099;-76
2023/11/10 03:09:35;;;;;;;3.05;1.42;;;14.00;96.70;;;;;;4907733;29;20051;-76
2023/11/10 03:12:03;;;;;;;2.42;1.17;;;13.90;96.70;;;;;;4908266;29;20048;-75
2023/11/10 03:14:32;;;;;;;2.22;1.02;;;13.90;96.70;;;;;;4902076;29;20044;-76
2023/11/10 03:17:00;;;;;;;1.60;1.17;;;14.00;96.70;;;;;;4909459;29;20079;-76
2023/11/10 03:19:29;;;;;;;2.35;0.70;;;13.90;96.70;;;;;;4913530;29;20048;-76
2023/11/10 03:21:57;;;;;;;1.17;0.85;;;14.00;96.70;;;;;;4883329;29;20514;-75
2023/11/10 03:24:26;;;;;;;1.73;1.10;;;14.00;96.70;;;;;;4906425;29;20048;-76
2023/11/10 03:26:54;;;;;;;2.83;1.08;;;14.00;96.70;;;;;;4906195;29;20137;-76
2023/11/10 03:29:22;;;;;;;2.17;1.17;;;14.10;96.70;;;;;;4907774;29;20048;-75
2023/11/10 03:31:50;;;;;;;3.67;1.38;;;14.10;96.70;;;;;;4906127;29;20062;-76
2023/11/10 03:34:18;;;;;;;1.67;1.45;;;14.10;96.70;;;;;;4908601;29;20056;-76
2023/11/10 03:36:48;;;;;;;1.38;1.02;;;14.10;96.70;;;;;;4910745;29;20134;-76
2023/11/10 03:39:16;;;;;;;1.52;1.10;;;14.10;96.70;;;;;;4915160;29;20044;-76
2023/11/10 03:41:44;;;;;;;2.00;1.40;;;14.10;96.70;;;;;;4890455;29;20059;-76
2023/11/10 03:44:12;;;;;;;2.28;1.30;;;14.10;96.70;;;;;;4900487;29;20140;-75
2023/11/10 03:46:40;;;;;;;1.65;1.05;;;14.10;96.70;;;;;;4925018;29;20051;-76
2023/11/10 03:49:08;;;;;;;1.67;1.20;;;14.00;96.70;;;;;;4910126;29;20072;-75
2023/11/10 03:51:36;;;;;;;1.85;1.38;;;14.00;96.70;;;;;;4911168;29;20060;-76
2023/11/10 03:54:05;;;;;;;2.35;1.38;;;14.00;96.70;;;;;;4907462;29;20044;-77
2023/11/10 03:56:35;;;;;;;1.50;1.20;;;14.10;96.70;;;;;;4914949;29;20596;-76
2023/11/10 03:59:04;;;;;;;1.60;1.40;;;14.00;96.70;;;;;;4925840;29;20422;-76
2023/11/10 04:01:32;;;;;;;1.40;1.17;;;14.10;96.70;;;;;;4930149;29;20075;-76
2023/11/10 04:04:00;;;;;;;2.90;1.80;;;14.10;96.70;;;;;;4926029;29;20053;-76
2023/11/10 04:06:29;;;;;;;1.58;1.48;;;14.10;96.70;;;;;;4911641;29;20135;-76
2023/11/10 04:09:10;;;;;;;1.88;1.63;;;14.20;96.70;;;;;;4932198;29;20055;-76
2023/11/10 04:11:38;;;;;;;1.40;1.30;;;14.20;96.70;;;;;;4927847;29;20044;-76
2023/11/10 04:14:07;;;;;;;1.85;1.75;;;14.20;96.70;;;;;;4896128;29;20048;-75
2023/11/10 04:16:35;;;;;;;1.92;1.40;;;14.10;96.70;;;;;;4916736;29;20565;-76
2023/11/10 04:19:03;;;;;;;1.40;1.30;;;14.20;96.70;;;;;;4946078;29;20466;-75
2023/11/10 04:21:31;;;;;;;1.92;1.35;;;14.20;96.70;;;;;;4929538;29;20553;-75
2023/11/10 04:23:58;;;;;;;1.80;1.55;;;14.20;96.70;;;;;;4912726;29;20498;-76
2023/11/10 04:26:28;;;;;;;1.90;1.52;;;14.20;96.70;;;;;;4908619;29;20075;-75
2023/11/10 04:28:55;;;;;;;1.95;1.48;;;14.20;96.70;;;;;;4939484;29;20059;-74
2023/11/10 04:31:23;;;;;;;1.70;1.40;;;14.20;96.70;;;;;;4922482;29;20426;-76
2023/11/10 04:33:51;;;;;;;3.08;1.63;;;14.20;96.70;;;;;;4917279;29;20044;-77
2023/11/10 04:36:18;;;;;;;1.42;1.33;;;14.20;96.70;;;;;;4895677;29;20048;-77
2023/11/10 04:38:48;;;;;;;2.25;1.40;;;14.20;96.70;;;;;;4911705;29;20039;-77
2023/11/10 04:41:16;;;;;;;1.30;1.20;;;14.20;96.70;;;;;;4911065;29;20550;-77
2023/11/10 04:43:46;;;;;;;1.80;1.10;;;14.20;96.70;;;;;;4895962;29;20042;-77
2023/11/10 04:46:13;;;;;;;2.45;1.38;;;14.20;96.70;;;;;;4929648;29;20063;-78
2023/11/10 04:48:41;;;;;;;1.90;1.58;;;14.20;96.70;;;;;;4911758;29;20056;-77
2023/11/10 04:51:09;;;;;;;1.63;1.52;;;14.20;96.70;;;;;;4935419;29;20159;-76
2023/11/10 04:53:37;;;;;;;1.88;1.60;;;14.20;96.70;;;;;;4911909;29;20170;-77
2023/11/10 04:56:04;;;;;;;1.98;1.80;;;14.20;96.70;;;;;;4915452;29;20056;-76
2023/11/10 04:58:32;;;;;;;2.20;1.63;;;14.20;96.70;;;;;;4941057;29;20048;-76
2023/11/10 05:01:01;;;;;;;1.70;1.60;;;14.20;96.70;;;;;;4928898;29;20074;-77
2023/11/10 05:03:31;;;;;;;2.17;1.23;;;14.20;96.70;;;;;;4912169;29;20493;-77
2023/11/10 05:06:01;;;;;;;1.85;0.98;;;14.20;96.70;;;;;;4927985;29;20047;-77
2023/11/10 05:08:29;;;;;;;1.70;0.82;;;14.10;96.70;;;;;;4913303;29;20046;-77
2023/11/10 05:10:56;;;;;;;2.50;0.65;;;14.10;96.70;;;;;;4913162;29;20130;-77
2023/11/10 05:13:24;;;;;;;0.70;0.50;;;14.10;96.70;;;;;;4911633;29;20043;-77
2023/11/10 05:15:52;;;;;;;0.60;0.52;;;14.10;96.70;;;;;;4911534;29;20066;-76
2023/11/10 05:18:27;;;;;;;2.38;0.65;;;14.10;96.70;;;;;;4929273;29;20515;-76
2023/11/10 05:20:58;;;;;;;0.60;0.32;;;14.20;96.70;;;;;;4913994;29;20062;-77
2023/11/10 05:23:25;;;;;;;1.60;0.50;;;14.20;96.70;;;;;;4928526;29;20498;-77
2023/11/10 05:25:53;;;;;;;0.65;0.40;;;14.10;96.70;;;;;;4895396;29;20048;-76
2023/11/10 05:28:21;;;;;;;1.10;0.68;;;14.10;96.70;;;;;;4929044;29;20046;-76
2023/11/10 05:30:49;;;;;;;0.60;0.47;;;14.10;96.70;;;;;;4928599;29;20055;-77
2023/11/10 05:33:16;;;;;;;2.03;0.40;;;14.10;96.70;;;;;;4927872;29;20042;-77
2023/11/10 05:35:46;;;;;;;1.35;0.43;;;14.00;96.70;;;;;;4915279;29;20051;-77
2023/11/10 05:38:14;;;;;;;1.60;0.47;;;14.00;96.70;;;;;;4915259;29;20048;-77
2023/11/10 05:40:41;;;;;;;1.23;0.57;;;14.00;96.70;;;;;;4931310;29;20051;-77
2023/11/10 05:43:09;;;;;;;0.90;0.70;;;14.00;96.70;;;;;;4920286;29;20138;-77
2023/11/10 05:45:37;;;;;;;0.63;0.45;;;14.00;96.70;;;;;;4926960;29;20102;-77
2023/11/10 05:48:05;;;;;;;2.80;1.35;;;14.00;96.70;;;;;;4912925;29;20660;-77
2023/11/10 05:50:33;;;;;;;2.10;1.10;;;14.00;96.70;;;;;;4936368;29;20134;-77
2023/11/10 05:53:02;;;;;;;2.70;0.90;;;14.00;96.70;;;;;;4928435;29;20051;-77
2023/11/10 05:55:32;;;;;;;0.85;0.73;;;14.10;96.70;;;;;;4928079;29;20744;-77
2023/11/10 05:58:00;;;;;;;2.30;1.13;;;14.00;96.70;;;;;;4895529;29;20086;-77
2023/11/10 06:00:28;;;;;;;1.05;0.93;;;14.00;96.70;;;;;;4909734;29;20064;-75
2023/11/10 06:02:56;;;;;;;2.83;1.40;;;14.10;96.70;;;;;;4927949;29;20054;-77
2023/11/10 06:05:25;;;;;;;2.80;1.30;;;14.10;96.70;;;;;;4899869;29;20044;-77
2023/11/10 06:07:54;;;;;;;1.40;1.08;;;14.00;96.70;;;;;;4910240;29;20063;-76
2023/11/10 06:10:23;;;;;;;1.17;1.08;;;14.00;96.70;;;;;;4913779;29;20055;-77
2023/11/10 06:12:51;;;;;;;2.35;1.30;;;14.00;96.70;;;;;;4927513;29;20530;-76
2023/11/10 06:15:20;;;;;;;1.80;1.10;;;14.00;96.70;;;;;;4944870;29;20039;-76
2023/11/10 06:17:51;;;;;;;2.10;1.20;;;14.00;96.70;;;;;;4921090;29;20043;-76
2023/11/10 06:20:20;;;;;;;1.83;1.10;;;13.90;96.70;;;;;;4898016;29;20462;-76
2023/11/10 06:22:48;;;;;;;2.33;1.10;;;13.90;96.70;;;;;;4910700;29;20142;-77
2023/11/10 06:25:16;;;;;;;2.67;1.05;;;13.80;96.70;;;;;;4927904;29;20048;-77
2023/11/10 06:27:45;;;;;;;3.53;0.98;;;13.80;96.70;;;;;;4909986;29;20043;-77
2023/11/10 06:30:14;;;;;;;1.75;0.98;;;13.70;96.70;;;;;;4934430;29;20126;-77
2023/11/10 06:32:42;;;;;;;1.50;0.80;;;13.70;96.70;;;;;;4923058;29;20094;-76
2023/11/10 06:35:11;;;;;;;2.90;1.10;;;13.60;96.70;;;;;;4899510;29;20051;-76
2023/11/10 06:37:39;;;;;;;1.42;1.00;;;13.60;96.70;;;;;;4937161;29;20044;-77
2023/11/10 06:40:08;;;;;;;2.30;0.90;;;13.60;96.70;;;;;;4933452;29;20063;-77
2023/11/10 06:42:36;;;;;;;3.47;0.98;;;13.60;96.70;;;;;;4925339;29;20047;-77
2023/11/10 06:45:07;;;;;;;2.97;0.90;;;13.60;96.70;;;;;;4935059;29;20055;-76
2023/11/10 06:47:35;;;;;;;1.75;0.80;;;13.60;96.70;;;;;;4910722;29;20051;-76
2023/11/10 06:50:04;;;;;;;2.92;0.90;;;13.60;96.70;;;;;;4932817;29;20385;-77
2023/11/10 06:52:31;;;;;;;4.00;0.95;;;13.60;96.70;;;;;;4911430;29;20100;-75
2023/11/10 06:54:59;;;;;;;4.28;0.80;;;13.60;96.70;;;;;;4928102;29;20055;-76
2023/11/10 06:57:28;;;;;;;0.82;0.40;;;13.60;96.70;;;;;;4935204;29;20063;-76
2023/11/10 06:59:55;;;;;;;2.42;0.65;;;13.60;96.70;;;;;;4918644;29;20047;-76
2023/11/10 07:02:26;;;;;;;4.45;1.00;;;13.60;96.70;;;;;;4932765;29;20047;-77
2023/11/10 07:04:53;;;;;;;2.03;0.60;;;13.60;96.70;;;;;;4930572;29;20043;-76
2023/11/10 07:07:21;;;;;;;1.33;0.60;;;13.60;96.70;;;;;;4906169;29;20444;-76
2023/11/10 07:09:49;;;;;;;1.55;0.40;;;13.60;96.70;;;;;;4927790;29;20059;-76
2023/11/10 07:12:17;;;;;;;2.85;0.50;;;13.60;96.70;;;;;;4917379;29;20052;-76
2023/11/10 07:14:45;;;;;;;1.77;0.30;;;13.60;96.70;;;;;;4918651;29;20406;-76
2023/11/10 07:17:15;;;;;;;2.13;0.40;;;13.60;96.70;;;;;;4909689;29;20107;-77
2023/11/10 07:19:45;;;;;;;1.38;0.40;;;13.60;96.70;;;;;;4929464;29;20062;-77
2023/11/10 07:22:13;;;;;;;2.45;0.60;;;13.60;96.70;;;;;;4907275;29;20060;-76
2023/11/10 07:24:40;;;;;;;3.67;0.77;;;13.60;96.70;;;;;;4909197;29;20059;-76
2023/11/10 07:27:09;;;;;;;2.25;0.80;;;13.70;96.70;;;;;;4926817;29;20040;-76
2023/11/10 07:29:37;;;;;;;2.85;0.60;;;13.70;96.70;;;;;;4909527;29;20052;-77
2023/11/10 07:32:05;;;;;;;2.92;0.70;;;13.70;96.70;;;;;;4909157;29;20540;-77
2023/11/10 07:34:33;;;;;;;4.65;0.65;;;13.70;96.70;;;;;;4896715;29;20054;-76
2023/11/10 07:37:03;;;;;;;6.28;0.82;;;13.70;96.70;;;;;;4908551;29;20050;-76
2023/11/10 07:39:30;;;;;;;6.03;0.77;;;13.80;96.70;;;;;;4930205;29;20766;-76
2023/11/10 07:42:00;;;;;;;3.17;0.85;;;13.80;96.70;;;;;;4938657;29;20050;-76
2023/11/10 07:44:28;;;;;;;3.20;1.23;;;13.80;96.70;;;;;;4912062;29;20420;-80
2023/11/10 07:46:56;;;;;;;4.07;1.10;;;13.80;96.70;;;;;;4940013;29;20224;-79
2023/11/10 07:49:25;;;;;;;4.15;1.20;;;13.80;96.70;;;;;;4919098;29;20753;-79
2023/11/10 07:51:54;;;;;;;3.13;0.98;;;13.90;96.70;;;;;;4894084;29;20051;-80
2023/11/10 07:54:24;;;;;;;4.55;0.90;;;13.90;96.70;;;;;;4912910;29;20051;-79
2023/11/10 07:56:52;;;;;;;4.07;1.20;;;14.00;96.70;;;;;;4915839;29;20529;-79
2023/11/10 07:59:19;;;;;;;8.40;1.50;;;14.00;96.70;;;;;;4912506;29;20052;-77
2023/11/10 08:01:47;;;;;;;4.60;1.60;;;14.10;96.70;;;;;;4921392;29;20048;-80
2023/11/10 08:04:15;;;;;;;5.10;1.10;;;14.20;96.70;;;;;;4905778;29;20464;-78
2023/11/10 08:06:44;;;;;;;2.67;1.05;;;14.20;96.70;;;;;;4905135;29;20047;-79
2023/11/10 08:09:15;;;;;;;3.35;1.60;;;14.30;96.70;;;;;;4914986;29;20055;-78
2023/11/10 08:11:45;;;;;;;5.00;1.42;;;14.40;96.70;;;;;;4914331;29;20325;-80
2023/11/10 08:14:22;;;;;;;3.28;1.38;;;14.40;96.70;;;;;;4922628;29;20048;-80
2023/11/10 08:16:51;;;;;;;3.75;1.50;;;14.50;96.70;;;;;;4907538;29;20040;-81
2023/11/10 08:19:20;;;;;;;7.35;1.60;;;14.60;96.70;;;;;;4912967;29;20048;-81
2023/11/10 08:21:48;;;;;;;3.60;1.23;;;14.60;96.70;;;;;;4910757;29;20114;-79
2023/11/10 08:24:16;;;;;;;4.82;1.25;;;14.70;96.70;;;;;;4907642;29;20548;-78
2023/11/10 08:26:46;;;;;;;5.07;1.63;;;14.70;96.70;;;;;;4910093;29;20044;-78
2023/11/10 08:29:14;;;;;;;3.08;1.27;;;14.70;96.70;;;;;;4912406;29;20147;-80
2023/11/10 08:31:42;;;;;;;5.45;2.03;;;14.70;96.70;;;;;;4890395;29;20057;-82
2023/11/10 08:34:10;;;;;;;7.32;1.65;;;14.70;96.70;;;;;;4892441;29;20056;-81
2023/11/10 08:36:39;;;;;;;4.88;2.05;;;14.70;96.70;;;;;;4907637;29;20503;-81
2023/11/10 08:39:08;;;;;;;4.72;2.10;;;14.70;96.70;;;;;;4908553;29;20419;-80
2023/11/10 08:41:36;;;;;;;4.13;1.83;;;14.70;96.70;;;;;;4907937;29;20054;-80
2023/11/10 08:44:11;;;;;;;2.58;1.30;;;14.70;96.70;;;;;;4905909;29;20151;-80
2023/11/10 08:46:39;;;;;;;4.57;1.48;;;14.80;96.70;;;;;;4907809;29;20409;-80
2023/11/10 08:49:07;;;;;;;2.15;1.00;;;14.80;96.70;;;;;;4891555;29;20063;-80
2023/11/10 08:51:35;;;;;;;2.63;0.90;;;14.80;96.70;;;;;;4907403;29;20097;-79
2023/11/10 08:54:03;;;;;;;5.22;1.50;;;14.90;96.70;;;;;;4909725;29;20036;-79
2023/11/10 08:56:31;;;;;;;5.53;1.65;;;14.90;96.70;;;;;;4906297;29;20056;-79
2023/11/10 08:58:59;;;;;;;5.80;1.55;;;14.90;96.70;;;;;;4907795;29;20047;-80
2023/11/10 09:01:28;;;;;;;3.85;1.48;;;14.90;96.70;;;;;;4909755;29;20059;-79
2023/11/10 09:03:56;;;;;;;6.00;1.83;;;14.90;96.70;;;;;;4904939;29;20050;-78
2023/11/10 09:06:38;;;;;;;7.40;1.55;;;14.90;96.70;;;;;;4910277;29;20051;-79
2023/11/10 09:09:07;;;;;;;4.78;1.40;;;15.00;96.70;;;;;;4911635;29;20451;-79
2023/11/10 09:11:36;;;;;;;3.33;1.52;;;15.10;96.70;;;;;;4909640;29;20150;-79
2023/11/10 09:14:04;;;;;;;2.92;1.27;;;15.10;96.70;;;;;;4892982;29;20040;-77
2023/11/10 09:16:33;;;;;;;5.55;1.50;;;15.10;96.70;;;;;;4893527;29;20048;-79
2023/11/10 09:19:01;;;;;;;5.82;1.63;;;15.20;96.70;;;;;;4911292;29;20047;-79
2023/11/10 09:21:29;;;;;;;7.32;1.88;;;15.20;96.70;;;;;;4899631;29;20059;-80
2023/11/10 09:23:58;;;;;;;4.55;1.48;;;15.20;96.70;;;;;;4915386;29;20058;-80
2023/11/10 09:26:26;;;;;;;6.90;1.75;;;15.30;96.70;;;;;;4925285;29;20048;-81
2023/11/10 09:28:54;;;;;;;13.45;2.50;;;15.30;96.70;;;;;;4909472;29;20127;-81
2023/11/10 09:31:22;;;;;;;25.23;3.85;;;15.30;96.70;;;;;;4909630;29;20059;-80
2023/11/10 09:33:53;;;;;;;11.55;3.40;;;15.30;96.70;;;;;;4895692;29;20045;-81
2023/11/10 09:36:24;;;;;;;6.70;1.52;;;15.30;96.70;;;;;;4897059;29;20052;-78
2023/11/10 09:38:53;;;;;;;5.35;1.55;;;15.30;96.70;;;;;;4909967;29;20540;-79
2023/11/10 09:41:25;;;;;;;6.35;2.00;;;15.30;96.70;;;;;;4910175;29;20383;-80
2023/11/10 09:43:55;;;;;;;9.73;5.00;;;15.30;96.70;;;;;;4910250;29;21794;-78
2023/11/10 09:46:23;;;;;;;10.57;5.40;;;15.30;96.70;;;;;;4904418;29;20050;-79
2023/11/10 09:48:54;;;;;;;10.05;5.22;;;15.30;96.70;;;;;;4924996;29;20048;-81
2023/11/10 09:51:24;;;;;;;4.95;2.38;;;15.40;96.70;;;;;;4910454;29;20063;-81
2023/11/10 09:53:55;;;;;;;2.97;1.52;;;15.40;96.70;;;;;;4894363;29;20056;-82
2023/11/10 09:56:24;;;;;;;5.95;1.80;;;15.40;96.70;;;;;;4894292;29;20055;-82
2023/11/10 09:58:52;;;;;;;5.57;1.55;;;15.40;96.70;;;;;;4877883;29;20555;-82
2023/11/10 10:01:19;;;;;;;3.17;1.60;;;15.50;96.70;;;;;;4892588;29;20528;-81
2023/11/10 10:03:47;;;;;;;6.50;1.25;;;15.50;96.70;;;;;;4878549;29;20049;-83
2023/11/10 10:06:19;;;;;;;4.85;1.42;;;15.50;96.70;;;;;;4890926;29;20048;-82
2023/11/10 10:08:47;;;;;;;6.15;1.02;;;15.50;96.70;;;;;;4874484;29;20639;-81
2023/11/10 10:11:15;;;;;;;5.28;1.13;;;15.60;96.70;;;;;;4891731;29;20171;-80
2023/11/10 10:13:43;;;;;;;5.13;1.13;;;15.70;96.70;;;;;;4889563;29;20058;-78
2023/11/10 10:16:12;;;;;;;4.70;1.00;;;15.70;96.70;;;;;;4902235;29;20055;-78
2023/11/10 10:18:41;;;;;;;9.40;2.55;;;15.70;96.70;;;;;;4899850;29;20440;-78
2023/11/10 10:21:10;;;;;;;5.05;1.55;;;15.70;96.70;;;;;;4890334;29;20135;-79
2023/11/10 10:23:39;;;;;;;8.63;1.63;;;15.70;96.70;;;;;;4888402;29;20715;-78
2023/11/10 10:26:09;;;;;;;6.53;1.77;;;15.80;96.70;;;;;;4888229;29;20047;-79
2023/11/10 10:28:39;;;;;;;6.00;1.50;;;15.80;96.70;;;;;;4873007;29;20131;-80
2023/11/10 10:31:07;;;;;;;7.20;1.73;;;15.80;96.70;;;;;;4888474;29;20056;-79
2023/11/10 10:33:35;;;;;;;7.22;1.83;;;15.80;96.70;;;;;;4890034;29;20587;-78
2023/11/10 10:36:03;;;;;;;8.93;2.15;;;15.80;96.70;;;;;;4890022;29;20599;-79
2023/11/10 10:38:33;;;;;;;9.60;1.92;;;15.80;96.70;;;;;;4891018;29;20634;-79
2023/11/10 10:41:04;;;;;;;5.78;1.25;;;15.90;96.70;;;;;;4906921;29;20143;-79
2023/11/10 10:43:37;;;;;;;10.05;2.00;;;16.00;96.70;;;;;;4907491;29;20139;-80
2023/11/10 10:46:25;;;;;;;9.38;2.38;;;16.10;96.70;;;;;;4899587;29;20532;-80
2023/11/10 10:48:53;;;;;;;12.98;2.30;;;16.10;96.70;;;;;;4905478;29;20048;-79
2023/11/10 10:51:23;;;;;;;8.35;1.83;;;16.20;96.70;;;;;;4891880;29;20051;-79
2023/11/10 10:53:52;;;;;;;6.82;1.38;;;16.30;96.70;;;;;;4888387;29;20049;-80
2023/11/10 10:56:23;;;;;;;11.45;2.05;;;16.60;96.70;;;;;;4894346;29;20060;-80
2023/11/10 10:59:09;;;;;;;5.45;1.35;;;16.50;96.70;;;;;;4916084;29;20048;-79
2023/11/10 11:01:37;;;;;;;10.25;1.65;;;16.50;96.70;;;;;;4913815;29;20035;-79
2023/11/10 11:04:21;;;;;;;7.80;1.80;;;16.60;96.70;;;;;;4926579;29;20521;-81
2023/11/10 11:07:00;;;;;;;7.28;1.42;;;16.60;96.70;;;;;;4915552;29;20537;-79
2023/11/10 11:10:07;;;;;;;6.47;1.20;;;16.60;96.70;;;;;;4916033;29;20151;-79
2023/11/10 11:13:19;;;;;;;6.60;1.45;;;16.50;96.70;;;;;;4899713;29;20083;-80
2023/11/10 11:16:01;;;;;;;8.00;1.38;;;16.40;96.70;;;;;;4908577;29;20048;-80
2023/11/10 11:18:42;;;;;;;7.78;1.73;;;16.40;96.70;;;;;;4902952;29;20044;-81
2023/11/10 11:21:13;;;;;;;5.32;1.30;;;16.60;96.70;;;;;;4910086;29;20056;-80
2023/11/10 11:23:42;;;;;;;7.25;1.23;;;16.80;96.70;;;;;;4908379;29;20071;-80
2023/11/10 11:26:16;;;;;;;6.60;1.20;;;17.00;96.70;;;;;;4900480;29;20489;-80
2023/11/10 11:28:45;;;;;;;5.72;1.30;;;17.00;96.70;;;;;;4908592;29;20048;-80
2023/11/10 11:31:13;;;;;;;7.75;1.33;;;17.00;96.70;;;;;;4891266;29;20096;-80
2023/11/10 11:33:44;;;;;;;6.75;1.50;;;16.80;96.70;;;;;;4907422;29;20586;-80
2023/11/10 11:36:18;;;;;;;5.25;1.20;;;16.80;96.70;;;;;;4917454;29;20143;-80
2023/11/10 11:38:51;;;;;;;8.30;1.25;;;16.70;96.70;;;;;;4900310;29;20059;-79
2023/11/10 11:41:19;;;;;;;7.00;1.48;;;16.70;96.70;;;;;;4921414;29;20048;-80
2023/11/10 11:43:49;;;;;;;8.27;1.45;;;16.70;96.70;;;;;;4915845;29;20071;-79
2023/11/10 11:46:18;;;;;;;5.97;1.42;;;16.60;96.70;;;;;;4893123;29;20577;-80
2023/11/10 11:48:47;;;;;;;17.23;2.33;;;16.70;96.70;;;;;;4899771;29;20067;-81
2023/11/10 11:51:15;;;;;;;7.30;1.65;;;16.80;96.70;;;;;;4911161;29;20087;-80
2023/11/10 11:53:43;;;;;;;9.35;1.48;;;16.90;96.70;;;;;;4906310;29;20052;-79
2023/11/10 11:56:13;;;;;;;9.73;1.52;;;17.20;96.70;;;;;;4920622;29;20502;-80
2023/11/10 11:58:41;;;;;;;7.38;1.17;;;17.40;96.70;;;;;;4900699;29;20588;-80
2023/11/10 12:01:10;;;;;;;7.03;1.70;;;17.40;96.70;;;;;;4900830;29;20056;-79
2023/11/10 12:03:38;;;;;;;5.68;1.30;;;17.70;96.70;;;;;;4914430;29;20570;-80
2023/11/10 12:06:07;;;;;;;8.45;1.50;;;17.70;96.70;;;;;;4908039;29;20048;-81
2023/11/10 12:08:35;;;;;;;7.15;1.17;;;17.40;96.70;;;;;;4911685;29;20051;-79
2023/11/10 12:11:05;;;;;;;8.23;1.02;;;17.30;96.70;;;;;;4909927;29;20047;-80
2023/11/10 12:13:33;;;;;;;10.27;2.08;;;17.40;96.70;;;;;;4890356;29;20574;-80
2023/11/10 12:16:02;;;;;;;11.25;1.13;;;17.30;96.70;;;;;;4890990;29;20107;-80
2023/11/10 12:18:35;;;;;;;7.18;1.70;;;17.20;96.70;;;;;;4907388;29;20072;-79
2023/11/10 12:21:06;;;;;;;9.90;1.90;;;17.10;96.70;;;;;;4914478;29;20059;-80
2023/11/10 12:23:34;;;;;;;12.00;3.00;;;17.00;96.70;;;;;;4905952;29;20058;-79
2023/11/10 12:26:03;;;;;;;9.60;2.28;;;17.10;96.70;;;;;;4906118;29;20048;-79
2023/11/10 12:28:35;;;;;;;12.07;2.90;;;17.10;96.70;;;;;;4905735;29;20104;-80
2023/11/10 12:31:04;;;;;;;7.50;2.83;;;17.20;96.70;;;;;;4906484;29;20503;-80
2023/11/10 12:33:35;;;;;;;8.95;2.15;;;17.20;96.70;;;;;;4893256;29;20773;-79
2023/11/10 12:36:08;;;;;;;10.48;3.08;;;17.20;96.70;;;;;;4909024;29;20079;-80
2023/11/10 12:38:37;;;;;;;6.00;1.40;;;17.10;96.70;;;;;;4910885;29;20083;-79
2023/11/10 12:41:09;;;;;;;16.33;2.85;;;17.00;96.70;;;;;;4911144;29;20137;-80
2023/11/10 12:43:38;;;;;;;8.30;1.52;;;17.00;96.70;;;;;;4925615;29;20048;-79
2023/11/10 12:46:10;;;;;;;7.65;1.88;;;16.90;96.70;;;;;;4894433;29;20048;-80
2023/11/10 12:48:41;;;;;;;8.05;1.80;;;16.80;96.70;;;;;;4890897;29;20056;-80
2023/11/10 12:51:11;;;;;;;5.50;1.67;;;16.80;96.70;;;;;;4893509;29;20722;-79
2023/11/10 12:53:40;;;;;;;6.03;1.25;;;16.70;96.70;;;;;;4903734;29;20526;-80
2023/11/10 12:56:09;;;;;;;7.07;0.98;;;16.50;96.70;;;;;;4921450;29;20099;-80